createdAt,value
2018-07-09T00:01:10.132Z,71.70
2018-07-09T00:03:40.384Z,71.80
2018-07-09T00:06:10.612Z,72.00
2018-07-09T00:08:40.524Z,72.20
2018-07-09T00:11:09.802Z,72.30
2018-07-09T00:13:39.064Z,72.50
2018-07-09T00:16:08.408Z,72.70
2018-07-09T00:18:37.124Z,72.90
2018-07-09T00:21:06.017Z,73.00
2018-07-09T00:23:34.711Z,73.10
2018-07-09T00:26:04.934Z,73.20
2018-07-09T00:28:33.749Z,73.10
2018-07-09T00:31:03.127Z,73.30
2018-07-09T00:33:31.973Z,73.90
2018-07-09T00:36:01.717Z,73.70
2018-07-09T00:38:30.944Z,74.10
2018-07-09T00:40:59.710Z,74.40
2018-07-09T00:43:29.770Z,74.70
2018-07-09T00:45:59.731Z,74.80
2018-07-09T00:48:29.167Z,75.10
2018-07-09T00:50:58.637Z,75.30
2018-07-09T00:53:28.004Z,75.50
2018-07-09T00:55:57.921Z,75.40
2018-07-09T00:58:26.679Z,76.60
2018-07-09T01:00:55.387Z,76.20
2018-07-09T01:03:25.019Z,77.20
2018-07-09T01:05:53.788Z,76.60
2018-07-09T01:08:22.779Z,76.60
2018-07-09T01:11:02.851Z,76.60
2018-07-09T01:13:40.640Z,76.50
2018-07-09T01:16:10.799Z,76.60
2018-07-09T01:18:39.554Z,76.80
2018-07-09T01:21:12.374Z,76.80
2018-07-09T01:23:42.054Z,76.90
2018-07-09T01:26:12.763Z,77.90
2018-07-09T01:28:42.302Z,77.30
2018-07-09T01:31:11.080Z,77.20
2018-07-09T01:33:40.602Z,77.50
2018-07-09T01:36:09.772Z,77.50
2018-07-09T01:38:38.478Z,77.50
2018-07-09T01:41:08.005Z,77.70
2018-07-09T01:43:36.806Z,77.90
2018-07-09T01:46:06.071Z,78.00
2018-07-09T01:48:35.363Z,78.30
2018-07-09T01:51:05.010Z,78.30
2018-07-09T01:53:33.882Z,78.40
2018-07-09T01:56:03.736Z,78.50
2018-07-09T01:58:33.338Z,79.10
2018-07-09T02:01:03.324Z,79.30
2018-07-09T02:03:32.150Z,79.30
2018-07-09T02:06:00.879Z,79.40
2018-07-09T02:08:30.266Z,79.40
2018-07-09T02:13:27.902Z,80.10
2018-07-09T02:15:56.733Z,80.00
2018-07-09T02:18:26.124Z,80.00
2018-07-09T02:20:56.375Z,79.80
2018-07-09T02:23:25.518Z,79.80
2018-07-09T02:25:55.073Z,79.70
2018-07-09T02:28:25.916Z,80.20
2018-07-09T02:30:55.381Z,80.20
2018-07-09T02:33:24.529Z,80.10
2018-07-09T02:35:53.908Z,80.20
2018-07-09T02:38:22.733Z,80.10
2018-07-09T02:40:52.085Z,80.40
2018-07-09T02:43:20.970Z,80.50
2018-07-09T02:45:50.824Z,80.40
2018-07-09T02:48:19.515Z,80.60
2018-07-09T02:50:49.755Z,81.00
2018-07-09T02:53:19.180Z,80.70
2018-07-09T02:55:48.525Z,80.60
2018-07-09T02:58:17.261Z,81.20
2018-07-09T03:00:46.109Z,81.00
2018-07-09T03:03:15.469Z,81.30
2018-07-09T03:08:13.428Z,81.50
2018-07-09T03:10:42.354Z,83.10
2018-07-09T03:13:12.537Z,81.90
2018-07-09T03:15:41.234Z,81.80
2018-07-09T03:18:09.908Z,81.80
2018-07-09T03:20:39.513Z,81.90
2018-07-09T03:23:10.000Z,82.50
2018-07-09T03:25:38.782Z,82.60
2018-07-09T03:28:07.447Z,82.40
2018-07-09T03:30:37.793Z,82.60
2018-07-09T03:33:06.781Z,83.50
2018-07-09T03:35:36.187Z,82.80
2018-07-09T03:38:05.583Z,83.00
2018-07-09T03:40:35.257Z,83.00
2018-07-09T03:43:04.668Z,83.10
2018-07-09T03:45:34.791Z,83.60
2018-07-09T03:50:32.529Z,83.50
2018-07-09T03:53:01.986Z,83.70
2018-07-09T03:58:01.726Z,83.30
2018-07-09T04:00:31.872Z,83.40
2018-07-09T04:03:01.933Z,83.30
2018-07-09T04:05:31.332Z,83.50
2018-07-09T04:08:01.712Z,83.80
2018-07-09T04:10:31.035Z,83.70
2018-07-09T04:13:01.523Z,83.70
2018-07-09T04:20:28.424Z,84.40
2018-07-09T04:22:57.160Z,87.10
2018-07-09T04:25:26.486Z,87.00
2018-07-09T04:27:55.728Z,85.90
2018-07-09T04:32:54.003Z,87.10
2018-07-09T04:35:23.988Z,86.00
2018-07-09T04:37:54.990Z,86.60
2018-07-09T04:40:25.554Z,85.70
2018-07-09T04:42:56.339Z,87.00
2018-07-09T04:45:25.165Z,86.50
2018-07-09T04:47:54.090Z,86.60
2018-07-09T04:50:24.236Z,86.80
2018-07-09T04:52:54.141Z,86.50
2018-07-09T04:55:24.369Z,86.80
2018-07-09T04:57:54.350Z,86.50
2018-07-09T05:00:23.719Z,87.50
2018-07-09T05:02:53.887Z,86.40
2018-07-09T05:05:23.240Z,88.60
2018-07-09T05:10:22.030Z,88.10
2018-07-09T05:12:52.014Z,89.40
2018-07-09T05:15:21.562Z,88.50
2018-07-09T05:17:51.688Z,88.40
2018-07-09T05:20:20.456Z,87.80
2018-07-09T05:22:49.138Z,88.80
2018-07-09T05:25:17.913Z,87.80
2018-07-09T05:27:47.468Z,87.90
2018-07-09T05:30:16.285Z,88.00
2018-07-09T05:32:45.065Z,88.60
2018-07-09T05:35:13.844Z,88.30
2018-07-09T05:37:42.593Z,88.40
2018-07-09T05:40:11.376Z,88.30
2018-07-09T05:42:40.249Z,89.90
2018-07-09T05:45:09.728Z,90.00
2018-07-09T05:47:38.639Z,90.20
2018-07-09T05:50:07.614Z,90.00
2018-07-09T05:52:37.680Z,90.70
2018-07-09T05:55:06.451Z,91.00
2018-07-09T05:57:35.296Z,91.10
2018-07-09T06:00:04.769Z,90.40
2018-07-09T06:02:33.662Z,91.00
2018-07-09T06:05:03.005Z,91.00
2018-07-09T06:07:32.046Z,90.90
2018-07-09T06:10:00.887Z,90.50
2018-07-09T06:12:30.919Z,90.80
2018-07-09T06:15:00.241Z,90.50
2018-07-09T06:17:30.253Z,90.10
2018-07-09T06:19:59.137Z,88.80
2018-07-09T06:22:28.703Z,88.70
2018-07-09T06:24:58.206Z,86.80
2018-07-09T06:27:27.053Z,87.10
2018-07-09T06:29:56.522Z,85.90
2018-07-09T06:32:25.372Z,86.30
2018-07-09T06:34:54.677Z,85.40
2018-07-09T06:37:23.445Z,86.00
2018-07-09T06:39:52.982Z,85.50
2018-07-09T06:42:22.661Z,85.30
2018-07-09T06:44:51.455Z,85.00
2018-07-09T06:47:21.550Z,84.80
2018-07-09T06:52:18.867Z,86.10
2018-07-09T06:54:48.584Z,84.60
2018-07-09T06:57:17.986Z,83.60
2018-07-09T06:59:46.773Z,83.00
2018-07-09T07:02:16.861Z,82.20
2018-07-09T07:04:45.704Z,83.00
2018-07-09T07:07:15.100Z,82.00
2018-07-09T07:09:45.445Z,80.20
2018-07-09T07:12:14.766Z,80.30
2018-07-09T07:14:44.099Z,80.00
2018-07-09T07:17:12.851Z,79.70
2018-07-09T07:19:42.995Z,79.70
2018-07-09T07:22:11.758Z,78.80
2018-07-09T07:24:40.449Z,78.70
2018-07-09T07:27:09.751Z,78.10
2018-07-09T07:29:39.980Z,77.90
2018-07-09T07:32:10.385Z,77.20
2018-07-09T07:34:39.937Z,78.20
2018-07-09T07:37:09.454Z,78.10
2018-07-09T07:39:40.068Z,77.40
2018-07-09T07:42:09.067Z,76.70
2018-07-09T07:44:38.472Z,75.90
2018-07-09T07:47:07.892Z,75.90
2018-07-09T07:49:36.648Z,75.30
2018-07-09T07:52:05.548Z,73.60
2018-07-09T07:54:34.312Z,73.50
2018-07-09T07:57:03.963Z,74.70
2018-07-09T07:59:33.559Z,74.70
2018-07-09T08:02:02.350Z,75.00
2018-07-09T08:04:33.563Z,75.90
2018-07-09T08:07:02.404Z,77.10
2018-07-09T08:09:33.099Z,75.70
2018-07-09T08:12:59.669Z,74.60
2018-07-09T08:14:32.414Z,74.10
2018-07-09T08:17:02.734Z,75.80
2018-07-09T08:19:31.479Z,75.30
2018-07-09T08:22:00.509Z,75.80
2018-07-09T08:24:31.336Z,74.10
2018-07-09T08:27:00.888Z,73.50
2018-07-09T08:29:30.433Z,72.80
2018-07-09T08:32:00.429Z,73.60
2018-07-09T08:34:30.476Z,74.30
2018-07-09T08:37:00.378Z,75.70
2018-07-09T08:39:29.192Z,73.80
2018-07-09T08:41:59.183Z,74.20
2018-07-09T08:44:27.986Z,70.00
2018-07-09T08:46:57.009Z,71.40
2018-07-09T08:49:25.802Z,72.60
2018-07-09T08:51:55.240Z,71.20
2018-07-09T08:54:24.711Z,70.60
2018-07-09T08:56:53.474Z,69.90
2018-07-09T08:59:22.251Z,69.10
2018-07-09T09:01:51.492Z,67.20
2018-07-09T09:04:21.421Z,69.00
2018-07-09T09:06:50.146Z,69.30
2018-07-09T09:09:19.505Z,68.70
2018-07-09T09:11:48.283Z,67.90
2018-07-09T09:14:17.202Z,66.10
2018-07-09T09:16:47.243Z,65.50
2018-07-09T09:21:45.568Z,62.50
2018-07-09T09:24:14.328Z,61.20
2018-07-09T09:29:13.091Z,63.60
2018-07-09T09:31:42.426Z,63.50
2018-07-09T09:34:11.775Z,60.60
2018-07-09T09:36:40.609Z,58.80
2018-07-09T09:39:10.505Z,59.70
2018-07-09T09:41:40.345Z,59.60
2018-07-09T09:44:09.551Z,58.70
2018-07-09T09:46:38.688Z,56.50
2018-07-09T09:49:07.425Z,57.00
2018-07-09T09:51:36.686Z,58.30
2018-07-09T09:56:33.916Z,56.90
2018-07-09T09:59:02.824Z,56.80
2018-07-09T10:01:32.250Z,59.60
2018-07-09T10:04:01.025Z,56.40
2018-07-09T10:06:29.819Z,56.30
2018-07-09T10:08:59.255Z,56.50
2018-07-09T10:11:28.588Z,57.20
2018-07-09T10:13:58.279Z,57.70
2018-07-09T10:16:28.391Z,58.90
2018-07-09T10:18:58.744Z,56.30
2018-07-09T10:21:28.183Z,55.50
2018-07-09T10:23:57.696Z,55.20
2018-07-09T10:26:26.935Z,55.40
2018-07-09T10:28:57.231Z,55.50
2018-07-09T10:31:27.250Z,56.20
2018-07-09T10:33:56.134Z,55.80
2018-07-09T10:36:24.910Z,53.50
2018-07-09T10:38:53.648Z,55.00
2018-07-09T10:41:22.712Z,55.10
2018-07-09T10:43:52.033Z,55.90
2018-07-09T10:46:21.185Z,56.20
2018-07-09T10:48:51.254Z,55.60
2018-07-09T10:51:20.211Z,55.20
2018-07-09T10:53:49.027Z,56.30
2018-07-09T10:56:17.760Z,56.60
2018-07-09T10:58:46.597Z,56.00
2018-07-09T11:01:15.809Z,57.90
2018-07-09T11:03:45.731Z,57.10
2018-07-09T11:06:14.688Z,57.50
2018-07-09T11:08:44.022Z,57.20
2018-07-09T11:11:12.750Z,57.70
2018-07-09T11:13:42.072Z,59.00
2018-07-09T11:16:10.854Z,57.90
2018-07-09T11:18:41.067Z,58.60
2018-07-09T11:21:10.441Z,57.50
2018-07-09T11:23:39.481Z,57.60
2018-07-09T11:26:08.725Z,58.20
2018-07-09T11:28:37.429Z,58.70
2018-07-09T11:31:06.295Z,59.00
2018-07-09T11:33:36.121Z,59.10
2018-07-09T11:36:05.418Z,59.20
2018-07-09T11:38:34.170Z,59.30
2018-07-09T11:41:04.089Z,59.70
2018-07-09T11:43:33.527Z,60.20
2018-07-09T11:46:03.489Z,60.30
2018-07-09T11:48:32.231Z,60.90
2018-07-09T11:51:00.978Z,60.60
2018-07-09T11:53:29.788Z,59.70
2018-07-09T11:55:58.475Z,60.70
2018-07-09T11:58:27.711Z,60.00
2018-07-09T12:00:57.159Z,59.80
2018-07-09T12:03:25.873Z,60.60
2018-07-09T12:05:55.479Z,61.00
2018-07-09T12:08:26.267Z,59.90
2018-07-09T12:10:55.658Z,59.30
2018-07-09T12:15:54.692Z,59.00
2018-07-09T12:18:24.459Z,58.10
2018-07-09T12:20:53.283Z,59.40
2018-07-09T12:23:21.982Z,57.30
2018-07-09T12:25:51.411Z,56.70
2018-07-09T12:28:20.899Z,57.70
2018-07-09T12:30:50.453Z,55.20
2018-07-09T12:33:20.371Z,53.20
2018-07-09T12:35:49.365Z,55.60
2018-07-09T12:38:18.721Z,55.00
2018-07-09T12:40:48.140Z,54.30
2018-07-09T12:43:16.891Z,55.00
2018-07-09T12:45:46.895Z,55.60
2018-07-09T12:48:16.309Z,56.00
2018-07-09T12:50:45.090Z,56.30
2018-07-09T12:53:14.496Z,57.20
2018-07-09T12:55:44.411Z,57.60
2018-07-09T12:58:13.203Z,56.70
2018-07-09T13:00:42.551Z,55.90
2018-07-09T13:03:11.383Z,54.50
2018-07-09T13:05:40.261Z,58.30
2018-07-09T13:08:09.099Z,53.90
2018-07-09T13:10:38.519Z,53.40
2018-07-09T13:13:07.403Z,52.80
2018-07-09T13:15:37.576Z,50.90
2018-07-09T13:20:35.056Z,52.70
2018-07-09T13:23:03.908Z,54.20
2018-07-09T13:25:33.748Z,54.30
2018-07-09T13:28:03.476Z,55.80
2018-07-09T13:30:33.959Z,55.30
2018-07-09T13:33:04.078Z,54.80
2018-07-09T13:35:33.791Z,53.70
2018-07-09T13:38:03.905Z,53.00
2018-07-09T13:40:33.545Z,53.90
2018-07-09T13:43:03.634Z,53.90
2018-07-09T13:45:33.639Z,54.50
2018-07-09T13:48:03.572Z,55.20
2018-07-09T13:50:33.079Z,55.10
2018-07-09T13:53:02.051Z,54.80
2018-07-09T13:55:32.076Z,56.60
2018-07-09T13:58:00.810Z,57.90
2018-07-09T14:00:30.745Z,57.90
2018-07-09T14:03:00.126Z,58.10
2018-07-09T14:05:30.254Z,57.30
2018-07-09T14:07:59.966Z,57.90
2018-07-09T14:10:29.624Z,58.60
2018-07-09T14:12:59.535Z,58.40
2018-07-09T14:15:29.274Z,59.60
2018-07-09T14:17:58.006Z,59.30
2018-07-09T14:20:45.786Z,59.60
2018-07-09T14:23:15.927Z,60.80
2018-07-09T14:25:44.671Z,61.20
2018-07-09T14:28:14.256Z,61.80
2018-07-09T14:30:44.022Z,62.30
2018-07-09T14:33:12.975Z,62.50
2018-07-09T14:35:42.337Z,63.00
2018-07-09T14:38:11.761Z,63.50
2018-07-09T14:40:41.579Z,63.00
2018-07-09T14:43:10.382Z,62.90
2018-07-09T14:45:41.045Z,62.90
2018-07-09T14:48:12.120Z,63.10
2018-07-09T14:50:41.191Z,63.10
2018-07-09T14:53:14.361Z,63.10
2018-07-09T14:55:43.871Z,64.00
2018-07-09T14:58:14.064Z,64.10
2018-07-09T15:00:42.783Z,64.90
2018-07-09T15:03:12.495Z,65.60
2018-07-09T15:05:41.198Z,65.60
2018-07-09T15:08:10.760Z,65.90
2018-07-09T15:10:40.093Z,65.80
2018-07-09T15:13:08.780Z,66.30
2018-07-09T15:15:37.656Z,66.60
2018-07-09T15:18:06.469Z,66.80
2018-07-09T15:20:35.948Z,66.80
2018-07-09T15:23:04.793Z,67.60
2018-07-09T15:25:35.000Z,66.60
2018-07-09T15:28:04.414Z,65.20
2018-07-09T15:30:33.346Z,65.70
2018-07-09T15:33:02.092Z,65.00
2018-07-09T15:35:32.504Z,65.80
2018-07-09T15:38:01.215Z,65.60
2018-07-09T15:40:31.178Z,65.20
2018-07-09T15:43:00.514Z,65.30
2018-07-09T15:45:29.461Z,63.60
2018-07-09T15:47:59.081Z,63.20
2018-07-09T15:50:29.686Z,62.90
2018-07-09T15:53:00.124Z,61.70
2018-07-09T15:55:29.501Z,60.50
2018-07-09T15:57:58.291Z,61.10
2018-07-09T16:00:28.071Z,61.50
2018-07-09T16:02:57.791Z,61.70
2018-07-09T16:05:26.466Z,61.60
2018-07-09T16:07:55.912Z,61.80
2018-07-09T16:10:25.651Z,62.60
2018-07-09T16:12:55.730Z,62.60
2018-07-09T16:15:25.362Z,63.40
2018-07-09T16:17:54.133Z,64.30
2018-07-09T16:20:22.831Z,64.40
2018-07-09T16:22:51.973Z,65.10
2018-07-09T16:25:20.835Z,65.70
2018-07-09T16:27:49.751Z,66.30
2018-07-09T16:30:18.413Z,66.90
2018-07-09T16:32:48.011Z,67.50
2018-07-09T16:35:16.688Z,67.30
2018-07-09T16:37:47.396Z,67.40
2018-07-09T16:40:16.801Z,67.70
2018-07-09T16:42:45.806Z,67.60
2018-07-09T16:45:14.784Z,67.80
2018-07-09T16:47:44.239Z,68.50
2018-07-09T16:50:13.212Z,68.00
2018-07-09T16:52:43.692Z,67.20
2018-07-09T16:55:12.521Z,66.80
2018-07-09T16:57:41.236Z,66.70
2018-07-09T17:00:10.796Z,67.00
2018-07-09T17:02:40.675Z,67.40
2018-07-09T17:05:10.665Z,67.00
2018-07-09T17:07:40.136Z,66.00
2018-07-09T17:10:08.807Z,65.40
2018-07-09T17:12:37.508Z,64.30
2018-07-09T17:15:07.505Z,64.10
2018-07-09T17:17:36.950Z,63.80
2018-07-09T17:20:05.849Z,63.40
2018-07-09T17:22:34.641Z,63.60
2018-07-09T17:25:03.597Z,63.90
2018-07-09T17:27:33.445Z,64.40
2018-07-09T17:30:03.046Z,65.60
2018-07-09T17:32:32.475Z,65.40
2018-07-09T17:35:01.248Z,65.20
2018-07-09T17:37:30.938Z,64.80
2018-07-09T17:39:59.669Z,66.00
2018-07-09T17:42:29.591Z,66.30
2018-07-09T17:44:59.216Z,66.90
2018-07-09T17:47:28.811Z,67.40
2018-07-09T17:49:58.477Z,67.70
2018-07-09T17:52:27.229Z,67.10
2018-07-09T17:54:57.721Z,66.30
2018-07-09T17:57:27.026Z,66.20
2018-07-09T17:59:56.585Z,66.30
2018-07-09T18:02:26.770Z,66.70
2018-07-09T18:04:55.573Z,67.10
2018-07-09T18:07:25.370Z,67.60
2018-07-09T18:09:54.822Z,67.80
2018-07-09T18:12:23.579Z,67.80
2018-07-09T18:14:52.494Z,67.80
2018-07-09T18:17:21.427Z,67.80
2018-07-09T18:19:50.187Z,67.70
2018-07-09T18:22:19.672Z,68.10
2018-07-09T18:24:48.505Z,68.00
2018-07-09T18:27:17.658Z,67.80
2018-07-09T18:29:46.854Z,68.20
2018-07-09T18:32:16.027Z,68.70
2018-07-09T18:34:46.607Z,69.00
2018-07-09T18:37:16.701Z,69.70
2018-07-09T18:39:45.611Z,70.00
2018-07-09T18:42:14.332Z,70.00
2018-07-09T18:44:43.389Z,70.60
2018-07-09T18:47:12.370Z,70.60
2018-07-09T18:49:41.148Z,71.60
2018-07-09T18:52:10.092Z,72.00
2018-07-09T18:54:40.203Z,72.30
2018-07-09T18:57:09.946Z,72.90
2018-07-09T18:59:39.226Z,72.90
2018-07-09T19:02:09.540Z,73.40
2018-07-09T19:04:38.975Z,74.10
2018-07-09T19:07:11.581Z,74.40
2018-07-09T19:09:42.521Z,74.80
2018-07-09T19:12:11.257Z,74.90
2018-07-09T19:14:45.069Z,74.90
2018-07-09T19:17:53.193Z,75.10
2018-07-09T19:21:38.314Z,74.50
2018-07-09T19:24:07.198Z,74.50
2018-07-09T19:29:25.465Z,74.30
2018-07-09T19:31:53.689Z,74.90
2018-07-09T19:34:21.097Z,75.60
2018-07-09T19:36:48.542Z,76.10
2018-07-09T19:39:15.919Z,76.00
2018-07-09T19:41:43.420Z,76.10
2018-07-09T19:44:10.925Z,76.20
2018-07-09T19:46:38.344Z,76.80
2018-07-09T19:49:06.047Z,77.20
2018-07-09T19:51:33.680Z,78.20
2018-07-09T19:54:01.137Z,79.10
2018-07-09T19:56:28.941Z,79.10
2018-07-09T19:58:56.379Z,78.70
2018-07-09T20:01:23.777Z,77.80
2018-07-09T20:03:51.210Z,79.00
2018-07-09T20:06:18.613Z,78.20
2018-07-09T20:08:51.457Z,78.20
2018-07-09T20:11:24.161Z,78.00
2018-07-09T20:14:07.774Z,78.10
2018-07-09T20:16:40.497Z,77.90
2018-07-09T20:19:08.558Z,77.50
2018-07-09T20:21:35.982Z,77.50
2018-07-09T20:24:03.420Z,77.80
2018-07-09T20:26:30.835Z,77.70
2018-07-09T20:28:59.235Z,78.00
2018-07-09T20:31:26.653Z,78.00
2018-07-09T20:33:54.046Z,77.70
2018-07-09T20:36:21.450Z,78.00
2018-07-09T20:38:48.854Z,78.10
2018-07-09T20:41:16.246Z,78.30
2018-07-09T20:43:43.640Z,78.60
2018-07-09T20:46:11.157Z,78.30
2018-07-09T20:48:39.356Z,78.10
2018-07-09T20:51:07.490Z,77.60
2018-07-09T20:53:34.901Z,77.50
2018-07-09T20:58:30.209Z,77.50
2018-07-09T21:00:57.621Z,77.50
2018-07-09T21:03:25.039Z,77.90
2018-07-09T21:05:52.469Z,78.30
2018-07-09T21:08:19.976Z,78.40
2018-07-09T21:10:47.641Z,78.20
2018-07-09T21:13:15.046Z,78.90
2018-07-09T21:15:42.460Z,78.60
2018-07-09T21:20:37.542Z,78.20
2018-07-09T21:23:04.957Z,79.00
2018-07-09T21:25:32.379Z,79.70
2018-07-09T21:27:59.797Z,78.90
2018-07-09T21:30:27.194Z,79.20
2018-07-09T21:32:54.608Z,78.90
2018-07-09T21:37:49.996Z,78.70
2018-07-09T21:40:17.332Z,78.40
2018-07-09T21:42:44.903Z,78.10
2018-07-09T21:45:12.292Z,78.10
2018-07-09T21:47:39.681Z,78.20
2018-07-09T21:50:07.106Z,78.50
2018-07-09T21:52:34.518Z,77.90
2018-07-09T21:55:01.939Z,77.80
2018-07-09T21:57:29.384Z,78.50
2018-07-09T21:59:56.814Z,78.50
2018-07-09T22:02:24.217Z,78.80
2018-07-09T22:04:51.647Z,79.10
2018-07-09T22:07:19.086Z,79.30
2018-07-09T22:09:46.482Z,79.30
2018-07-09T22:12:13.873Z,79.50
2018-07-09T22:14:41.266Z,79.00
2018-07-09T22:17:08.664Z,78.90
2018-07-09T22:19:36.071Z,79.00
2018-07-09T22:22:03.503Z,79.30
2018-07-09T22:24:31.169Z,79.50
2018-07-09T22:26:58.566Z,79.30
2018-07-09T22:29:26.007Z,79.30
2018-07-09T22:31:54.636Z,79.60
2018-07-09T22:34:23.239Z,79.40
2018-07-09T22:36:51.854Z,79.80
2018-07-09T22:39:20.501Z,80.20
2018-07-09T22:41:49.161Z,80.00
2018-07-09T22:44:20.523Z,80.50
2018-07-09T22:46:49.576Z,80.30
2018-07-09T22:49:18.389Z,80.60
2018-07-09T22:51:48.016Z,80.40
2018-07-09T22:54:17.443Z,80.30
2018-07-09T22:56:46.077Z,80.40
2018-07-09T22:59:14.667Z,80.60
2018-07-09T23:01:43.291Z,80.60
2018-07-09T23:04:11.890Z,80.30
2018-07-09T23:06:41.106Z,80.30
2018-07-09T23:10:19.074Z,79.80
2018-07-09T23:13:27.025Z,79.40
2018-07-09T23:17:05.610Z,80.20
2018-07-09T23:21:51.467Z,80.70
2018-07-09T23:26:46.543Z,81.20
2018-07-09T23:29:13.952Z,81.20
2018-07-09T23:31:41.338Z,80.80
2018-07-09T23:34:08.857Z,80.80
2018-07-09T23:36:36.487Z,80.80
2018-07-09T23:39:04.980Z,81.00
2018-07-09T23:41:32.424Z,81.20
2018-07-09T23:44:00.261Z,81.30
2018-07-09T23:46:27.681Z,81.00
2018-07-09T23:48:55.109Z,81.10
2018-07-09T23:51:22.891Z,80.80
2018-07-09T23:53:50.661Z,81.50
2018-07-09T23:58:38.461Z,81.60
